Time;durP1;ratioP1;P1;durP2;ratioP2;P2;SDS_P1;SDS_P2;PMS_P1;PMS_P2;Temp;Humidity;BMP_temperature;BMP_pressure;BME280_temperature;BME280_humidity;BME280_pressure;Samples;Min_cycle;Max_cycle;Signal;HPM_P1;HPM_P2
2023/08/14 00:00:15;;;;;;;5.43;3.63;;;;;;;;;;5074596;28;20183;-72
2023/08/14 00:03:19;;;;;;;4.93;3.50;;;;;;;;;;5062456;28;20183;-72
2023/08/14 00:06:23;;;;;;;4.97;3.37;;;;;;;;;;5074716;28;20618;-72
2023/08/14 00:09:28;;;;;;;5.90;4.13;;;;;;;;;;5074735;28;20175;-72
2023/08/14 00:12:32;;;;;;;6.10;3.77;;;;;;;;;;5074340;28;20570;-72
2023/08/14 00:15:36;;;;;;;4.90;3.60;;;;;;;;;;5074331;28;20179;-72
2023/08/14 00:18:40;;;;;;;5.63;3.70;;;;;;;;;;5062285;28;20175;-72
2023/08/14 00:21:44;;;;;;;6.40;3.67;;;;;;;;;;5074089;28;20215;-72
2023/08/14 00:24:49;;;;;;;6.90;3.63;;;;;;;;;;5074420;28;20519;-72
2023/08/14 00:27:53;;;;;;;7.07;3.83;;;;;;;;;;5074189;28;20226;-72
2023/08/14 00:30:57;;;;;;;5.20;3.63;;;;;;;;;;5061969;28;20219;-72
2023/08/14 00:34:02;;;;;;;6.70;3.50;;;;;;;;;;5061644;28;20657;-72
2023/08/14 00:37:06;;;;;;;6.17;3.60;;;;;;;;;;5074094;28;20199;-72
2023/08/14 00:40:11;;;;;;;6.67;3.37;;;;;;;;;;5062154;28;20179;-72
2023/08/14 00:43:16;;;;;;;6.27;3.60;;;;;;;;;;5050237;28;20176;-72
2023/08/14 00:46:20;;;;;;;4.87;3.53;;;;;;;;;;5061335;28;20207;-72
2023/08/14 00:49:25;;;;;;;6.47;3.57;;;;;;;;;;5073580;28;20208;-72
2023/08/14 00:52:32;;;;;;;5.93;3.90;;;;;;;;;;5050056;28;20223;-72
2023/08/14 00:55:36;;;;;;;5.10;3.80;;;;;;;;;;5073915;28;20180;-72
2023/08/14 00:58:40;;;;;;;5.17;3.50;;;;;;;;;;5061267;28;20167;-72
2023/08/14 01:01:44;;;;;;;4.60;3.80;;;;;;;;;;5061477;28;20219;-72
2023/08/14 01:04:48;;;;;;;7.20;4.13;;;;;;;;;;5061406;28;20519;-72
2023/08/14 01:07:52;;;;;;;5.27;3.60;;;;;;;;;;5050130;28;20654;-72
2023/08/14 01:11:09;;;;;;;4.17;3.77;;;;;;;;;;5073758;28;20218;-72
2023/08/14 01:14:23;;;;;;;4.60;3.90;;;;;;;;;;5073861;28;20183;-72
2023/08/14 01:17:31;;;;;;;4.03;3.70;;;;;;;;;;5061519;28;20171;-72
2023/08/14 01:20:37;;;;;;;5.07;3.73;;;;;;;;;;5061146;28;20180;-73
2023/08/14 01:23:55;;;;;;;4.70;3.87;;;;;;;;;;5049835;28;20180;-72
2023/08/14 01:27:00;;;;;;;5.07;4.30;;;;;;;;;;5061373;28;20179;-72
2023/08/14 01:30:04;;;;;;;5.87;4.30;;;;;;;;;;5061086;28;20171;-72
2023/08/14 01:33:08;;;;;;;4.77;4.13;;;;;;;;;;5073537;28;20630;-72
2023/08/14 01:36:26;;;;;;;5.27;4.13;;;;;;;;;;5061061;28;20242;-72
2023/08/14 01:39:39;;;;;;;6.33;4.30;;;;;;;;;;5060732;28;20191;-72
2023/08/14 01:42:46;;;;;;;4.00;3.60;;;;;;;;;;5060801;28;20686;-72
2023/08/14 01:45:52;;;;;;;6.37;3.90;;;;;;;;;;5060791;28;20203;-72
2023/08/14 01:48:59;;;;;;;5.93;3.90;;;;;;;;;;5060703;28;20203;-72
2023/08/14 01:52:04;;;;;;;4.37;3.33;;;;;;;;;;5061166;28;20566;-72
2023/08/14 01:55:08;;;;;;;5.93;3.80;;;;;;;;;;5061090;28;20180;-72
2023/08/14 01:58:13;;;;;;;4.33;3.77;;;;;;;;;;5060881;28;20630;-72
2023/08/14 02:01:17;;;;;;;4.57;3.67;;;;;;;;;;5060484;28;20219;-72
2023/08/14 02:04:21;;;;;;;7.37;3.77;;;;;;;;;;5063068;28;20179;-73
2023/08/14 02:07:25;;;;;;;5.67;3.63;;;;;;;;;;5064742;28;20176;-72
2023/08/14 02:10:32;;;;;;;5.63;3.67;;;;;;;;;;5077500;28;20163;-73
2023/08/14 02:13:36;;;;;;;6.07;3.87;;;;;;;;;;5064779;28;20183;-72
2023/08/14 02:16:40;;;;;;;5.53;4.23;;;;;;;;;;5053730;28;20176;-72
2023/08/14 02:19:44;;;;;;;5.73;4.07;;;;;;;;;;5076836;28;20183;-72
2023/08/14 02:22:49;;;;;;;5.33;4.00;;;;;;;;;;5064182;28;20689;-72
2023/08/14 02:25:54;;;;;;;5.47;4.03;;;;;;;;;;5064155;28;20179;-72
2023/08/14 02:29:00;;;;;;;7.20;3.83;;;;;;;;;;5076407;28;20219;-72
2023/08/14 02:32:04;;;;;;;6.50;3.90;;;;;;;;;;5076747;28;20227;-72
2023/08/14 02:35:09;;;;;;;8.17;4.13;;;;;;;;;;5064248;28;20184;-72
2023/08/14 02:38:14;;;;;;;6.00;3.50;;;;;;;;;;5076453;28;20515;-72
2023/08/14 02:41:21;;;;;;;8.60;3.47;;;;;;;;;;5076266;28;20689;-72
2023/08/14 02:44:26;;;;;;;9.37;3.97;;;;;;;;;;5063778;28;20199;-72
2023/08/14 02:47:30;;;;;;;5.83;3.50;;;;;;;;;;5076157;28;20195;-72
2023/08/14 02:50:34;;;;;;;5.03;3.57;;;;;;;;;;5063947;28;20175;-72
2023/08/14 02:53:38;;;;;;;4.03;3.40;;;;;;;;;;5063615;28;20187;-72
2023/08/14 02:56:42;;;;;;;5.30;3.63;;;;;;;;;;5063770;28;20523;-72
2023/08/14 02:59:47;;;;;;;8.40;3.37;;;;;;;;;;5063829;28;20176;-72
2023/08/14 03:02:51;;;;;;;5.40;3.67;;;;;;;;;;5063413;28;20215;-72
2023/08/14 03:05:57;;;;;;;3.60;3.30;;;;;;;;;;5063946;28;20619;-72
2023/08/14 03:09:02;;;;;;;4.70;3.10;;;;;;;;;;5075523;28;20215;-72
2023/08/14 03:12:06;;;;;;;5.47;3.30;;;;;;;;;;5052129;28;20694;-72
2023/08/14 03:15:10;;;;;;;5.00;3.37;;;;;;;;;;5074500;28;20179;-72
2023/08/14 03:18:14;;;;;;;3.60;3.30;;;;;;;;;;5063116;28;20539;-72
2023/08/14 03:21:19;;;;;;;5.40;2.70;;;;;;;;;;5062958;28;20215;-72
2023/08/14 03:24:23;;;;;;;3.20;2.90;;;;;;;;;;5063398;28;20195;-72
2023/08/14 03:27:26;;;;;;;2.83;2.40;;;;;;;;;;5062991;28;20199;-72
2023/08/14 03:30:32;;;;;;;3.23;2.40;;;;;;;;;;5074962;28;20167;-72
2023/08/14 03:33:37;;;;;;;3.30;2.30;;;;;;;;;;5063096;28;20188;-72
2023/08/14 03:36:43;;;;;;;3.37;2.07;;;;;;;;;;5063322;28;20179;-72
2023/08/14 03:39:48;;;;;;;2.47;1.73;;;;;;;;;;5063075;28;20575;-72
2023/08/14 03:42:53;;;;;;;2.33;2.13;;;;;;;;;;5062380;28;20681;-72
2023/08/14 03:45:58;;;;;;;3.07;1.90;;;;;;;;;;5062066;28;20207;-72
2023/08/14 03:49:02;;;;;;;2.80;1.93;;;;;;;;;;5061926;28;20207;-72
2023/08/14 03:52:06;;;;;;;2.30;2.10;;;;;;;;;;5061995;28;20215;-72
2023/08/14 03:55:11;;;;;;;4.90;2.20;;;;;;;;;;5062190;28;20179;-72
2023/08/14 03:58:15;;;;;;;4.57;2.10;;;;;;;;;;5061843;28;20183;-72
2023/08/14 04:01:20;;;;;;;2.70;1.83;;;;;;;;;;5073435;28;20214;-72
2023/08/14 04:04:23;;;;;;;2.10;1.90;;;;;;;;;;5061246;28;20175;-72
2023/08/14 04:07:28;;;;;;;2.40;1.80;;;;;;;;;;5048394;28;20180;-72
2023/08/14 04:10:33;;;;;;;2.17;1.83;;;;;;;;;;5071973;28;20263;-72
2023/08/14 04:13:37;;;;;;;2.47;1.70;;;;;;;;;;5072051;28;20617;-72
2023/08/14 04:16:41;;;;;;;1.90;1.70;;;;;;;;;;5072490;28;20480;-72
2023/08/14 04:19:45;;;;;;;3.20;1.40;;;;;;;;;;5059598;28;20515;-72
2023/08/14 04:22:49;;;;;;;3.47;1.60;;;;;;;;;;5071730;28;20215;-72
2023/08/14 04:25:53;;;;;;;1.57;1.47;;;;;;;;;;5048020;28;20195;-72
2023/08/14 04:28:58;;;;;;;2.80;1.60;;;;;;;;;;5059241;28;20657;-72
2023/08/14 04:32:02;;;;;;;3.40;1.80;;;;;;;;;;5059397;28;20223;-72
2023/08/14 04:35:08;;;;;;;2.47;1.90;;;;;;;;;;5071959;28;20184;-72
2023/08/14 04:38:13;;;;;;;4.70;1.60;;;;;;;;;;5059286;28;20175;-72
2023/08/14 04:41:21;;;;;;;2.30;1.80;;;;;;;;;;5059349;28;20227;-72
2023/08/14 04:44:26;;;;;;;1.93;1.63;;;;;;;;;;5059107;28;20175;-71
2023/08/14 04:47:30;;;;;;;3.00;1.70;;;;;;;;;;5048303;28;20203;-72
2023/08/14 04:50:34;;;;;;;3.40;1.80;;;;;;;;;;5047708;28;20211;-72
2023/08/14 04:53:38;;;;;;;4.20;2.43;;;;;;;;;;5047863;28;20199;-72
2023/08/14 04:56:44;;;;;;;2.90;2.43;;;;;;;;;;5059166;28;20199;-72
2023/08/14 04:59:48;;;;;;;3.37;2.47;;;;;;;;;;5059214;28;20180;-72
2023/08/14 05:02:52;;;;;;;4.33;2.53;;;;;;;;;;5047342;28;20223;-72
2023/08/14 05:05:56;;;;;;;3.60;2.30;;;;;;;;;;5047586;28;20180;-72
2023/08/14 05:09:01;;;;;;;3.20;2.33;;;;;;;;;;5058992;28;20230;-72
2023/08/14 05:12:07;;;;;;;2.53;2.27;;;;;;;;;;5058802;28;20210;-72
2023/08/14 05:15:11;;;;;;;3.77;2.20;;;;;;;;;;5058632;28;20180;-72
2023/08/14 05:18:16;;;;;;;2.50;1.97;;;;;;;;;;5058808;28;20211;-72
2023/08/14 05:21:21;;;;;;;2.97;1.63;;;;;;;;;;5058593;28;20211;-72
2023/08/14 05:24:25;;;;;;;2.73;1.57;;;;;;;;;;5058950;28;20184;-72
2023/08/14 05:27:31;;;;;;;2.77;1.30;;;;;;;;;;5071257;28;20171;-72
2023/08/14 05:30:35;;;;;;;2.57;1.40;;;;;;;;;;5070698;28;20211;-72
2023/08/14 05:33:39;;;;;;;1.73;1.30;;;;;;;;;;5070671;28;20610;-72
2023/08/14 05:36:44;;;;;;;1.30;1.10;;;;;;;;;;5071014;28;20176;-72
2023/08/14 05:39:47;;;;;;;1.97;0.90;;;;;;;;;;5070073;28;20175;-72
2023/08/14 05:43:05;;;;;;;2.00;1.07;;;;;;;;;;5070660;28;20218;-72
2023/08/14 05:46:09;;;;;;;4.57;1.30;;;;;;;;;;5058326;28;20203;-72
2023/08/14 05:49:13;;;;;;;1.40;1.10;;;;;;;;;;5070870;28;20264;-72
2023/08/14 05:52:17;;;;;;;1.20;1.10;;;;;;;;;;5070849;28;20218;-71
2023/08/14 05:55:22;;;;;;;1.80;1.03;;;;;;;;;;5070793;28;20198;-72
2023/08/14 05:58:26;;;;;;;1.60;1.10;;;;;;;;;;5071034;28;20183;-72
2023/08/14 06:01:31;;;;;;;3.93;1.30;;;;;;;;;;5070761;28;20211;-72
2023/08/14 06:04:37;;;;;;;2.30;1.20;;;;;;;;;;5070977;28;20175;-72
2023/08/14 06:07:41;;;;;;;2.07;1.07;;;;;;;;;;5058481;28;20176;-72
2023/08/14 06:10:45;;;;;;;1.20;1.00;;;;;;;;;;5058177;28;20211;-72
2023/08/14 06:13:50;;;;;;;6.13;1.40;;;;;;;;;;5070991;28;20195;-72
2023/08/14 06:16:54;;;;;;;1.67;0.90;;;;;;;;;;5070510;28;20203;-72
2023/08/14 06:19:59;;;;;;;2.13;1.20;;;;;;;;;;5057844;28;20181;-72
2023/08/14 06:23:04;;;;;;;1.57;1.10;;;;;;;;;;5070964;28;20591;-73
2023/08/14 06:26:09;;;;;;;1.63;1.33;;;;;;;;;;5070675;28;20243;-72
2023/08/14 06:29:13;;;;;;;2.73;1.10;;;;;;;;;;5057894;28;20654;-73
2023/08/14 06:32:17;;;;;;;3.30;1.23;;;;;;;;;;5057516;28;20239;-73
2023/08/14 06:35:21;;;;;;;1.07;0.90;;;;;;;;;;5057758;28;20519;-73
2023/08/14 06:38:25;;;;;;;8.03;0.93;;;;;;;;;;5057470;28;20491;-73
2023/08/14 06:41:29;;;;;;;1.33;1.20;;;;;;;;;;5069795;28;20211;-73
2023/08/14 06:44:34;;;;;;;2.23;0.90;;;;;;;;;;5046178;28;20656;-73
2023/08/14 06:47:45;;;;;;;1.43;1.00;;;;;;;;;;5070364;28;20290;-72
2023/08/14 06:50:49;;;;;;;1.40;1.00;;;;;;;;;;5060594;28;20216;-72
2023/08/14 06:53:53;;;;;;;2.67;1.20;;;;;;;;;;5073709;28;20176;-73
2023/08/14 06:56:58;;;;;;;1.40;1.00;;;;;;;;;;5073547;28;20173;-72
2023/08/14 07:00:11;;;;;;;2.50;1.20;;;;;;;;;;5074119;28;20197;-72
2023/08/14 07:03:16;;;;;;;1.40;1.10;;;;;;;;;;5061371;28;20185;-72
2023/08/14 07:06:20;;;;;;;1.17;1.00;;;;;;;;;;5073429;28;20193;-72
2023/08/14 07:09:24;;;;;;;1.83;1.20;;;;;;;;;;5049147;28;20224;-72
2023/08/14 07:12:28;;;;;;;2.80;1.03;;;;;;;;;;5060752;28;20221;-71
2023/08/14 07:15:32;;;;;;;2.03;1.10;;;;;;;;;;5049690;28;20282;-72
2023/08/14 07:18:36;;;;;;;5.37;1.40;;;;;;;;;;5060728;28;20197;-72
2023/08/14 07:21:40;;;;;;;1.50;1.23;;;;;;;;;;5060833;28;20235;-71
2023/08/14 07:24:45;;;;;;;2.13;0.93;;;;;;;;;;5060832;28;20184;-72
2023/08/14 07:27:49;;;;;;;1.20;1.00;;;;;;;;;;5073182;28;20186;-71
2023/08/14 07:30:53;;;;;;;2.57;1.10;;;;;;;;;;5060867;28;20246;-71
2023/08/14 07:33:57;;;;;;;1.30;1.20;;;;;;;;;;5073402;28;20187;-72
2023/08/14 07:37:01;;;;;;;2.23;1.13;;;;;;;;;;5060524;28;20176;-72
2023/08/14 07:40:09;;;;;;;1.60;1.30;;;;;;;;;;5073059;28;20176;-72
2023/08/14 07:43:13;;;;;;;2.20;1.40;;;;;;;;;;5049191;28;20525;-72
2023/08/14 07:46:18;;;;;;;1.57;1.30;;;;;;;;;;5060275;28;20296;-72
2023/08/14 07:49:22;;;;;;;1.23;1.13;;;;;;;;;;5072723;28;20192;-72
2023/08/14 07:52:30;;;;;;;2.00;1.33;;;;;;;;;;5072682;28;20219;-72
2023/08/14 07:55:34;;;;;;;1.95;1.20;;;;;;;;;;5072752;28;20178;-72
2023/08/14 07:58:41;;;;;;;1.67;1.25;;;;;;;;;;5072765;28;20186;-72
2023/08/14 08:01:45;;;;;;;1.17;1.08;;;;;;;;;;5072128;28;20670;-72
2023/08/14 08:04:49;;;;;;;5.63;1.63;;;;;;;;;;5060003;28;20209;-72
2023/08/14 08:07:53;;;;;;;1.30;1.20;;;;;;;;;;5059935;28;20213;-72
2023/08/14 08:10:57;;;;;;;2.45;1.40;;;;;;;;;;5072443;28;20323;-73
2023/08/14 08:14:05;;;;;;;2.15;1.35;;;;;;;;;;5072504;28;20182;-72
2023/08/14 08:17:09;;;;;;;2.05;1.67;;;;;;;;;;5060286;28;20285;-72
2023/08/14 08:20:13;;;;;;;2.95;1.30;;;;;;;;;;5072651;28;20172;-72
2023/08/14 08:23:17;;;;;;;2.22;1.63;;;;;;;;;;5072061;28;20573;-72
2023/08/14 08:26:22;;;;;;;2.15;1.58;;;;;;;;;;5072089;28;20180;-72
2023/08/14 08:29:26;;;;;;;2.33;1.27;;;;;;;;;;5071912;28;20214;-72
2023/08/14 08:32:30;;;;;;;2.72;1.65;;;;;;;;;;5059324;28;20313;-72
2023/08/14 08:35:34;;;;;;;2.22;1.45;;;;;;;;;;5071612;28;20549;-72
2023/08/14 08:38:38;;;;;;;2.10;1.75;;;;;;;;;;5071956;28;20199;-72
2023/08/14 08:41:46;;;;;;;3.10;1.65;;;;;;;;;;5071654;28;20657;-72
2023/08/14 08:44:53;;;;;;;1.73;1.55;;;;;;;;;;5059186;28;20191;-72
2023/08/14 08:48:00;;;;;;;2.88;1.60;;;;;;;;;;5072071;28;20183;-72
2023/08/14 08:51:04;;;;;;;2.72;1.35;;;;;;;;;;5071228;28;20227;-72
2023/08/14 08:54:09;;;;;;;3.92;1.88;;;;;;;;;;5071583;28;20180;-73
2023/08/14 08:57:14;;;;;;;3.50;1.60;;;;;;;;;;5071451;28;20211;-73
2023/08/14 09:00:20;;;;;;;3.35;1.30;;;;;;;;;;5059202;28;20168;-73
2023/08/14 09:03:24;;;;;;;4.47;1.70;;;;;;;;;;5071755;28;20172;-72
2023/08/14 09:06:28;;;;;;;1.90;1.70;;;;;;;;;;5058835;28;20183;-72
2023/08/14 09:09:32;;;;;;;3.13;1.35;;;;;;;;;;5048228;28;20183;-72
2023/08/14 09:12:36;;;;;;;3.38;1.23;;;;;;;;;;5073201;28;20564;-72
2023/08/14 09:15:44;;;;;;;2.45;1.60;;;;;;;;;;5074007;28;20619;-73
2023/08/14 09:18:48;;;;;;;3.60;1.60;;;;;;;;;;5073225;28;20180;-72
2023/08/14 09:21:52;;;;;;;1.88;1.42;;;;;;;;;;5073237;28;20683;-72
2023/08/14 09:24:56;;;;;;;2.85;1.50;;;;;;;;;;5073568;28;20187;-72
2023/08/14 09:28:00;;;;;;;2.88;1.40;;;;;;;;;;5073346;28;20183;-72
2023/08/14 09:31:06;;;;;;;2.85;1.67;;;;;;;;;;5073210;28;20227;-72
2023/08/14 09:34:17;;;;;;;3.28;1.42;;;;;;;;;;5060861;28;20184;-72
2023/08/14 09:37:22;;;;;;;2.20;1.65;;;;;;;;;;5073250;28;20176;-72
2023/08/14 09:40:26;;;;;;;2.92;1.67;;;;;;;;;;5073030;28;20195;-72
2023/08/14 09:43:32;;;;;;;4.43;1.77;;;;;;;;;;5049454;28;20192;-73
2023/08/14 09:46:36;;;;;;;2.58;1.50;;;;;;;;;;5073026;28;20207;-73
2023/08/14 09:49:41;;;;;;;3.85;1.77;;;;;;;;;;5060759;28;20171;-73
2023/08/14 09:52:45;;;;;;;4.35;1.60;;;;;;;;;;5072939;28;20685;-71
2023/08/14 09:55:50;;;;;;;2.55;1.98;;;;;;;;;;5072932;28;20200;-72
2023/08/14 09:58:54;;;;;;;2.72;1.70;;;;;;;;;;5072985;28;20179;-72
2023/08/14 10:02:00;;;;;;;1.73;1.40;;;;;;;;;;5060592;28;20212;-72
2023/08/14 10:05:09;;;;;;;2.50;1.55;;;;;;;;;;5073061;28;20184;-73
2023/08/14 10:08:13;;;;;;;2.33;1.75;;;;;;;;;;5072898;28;20192;-73
2023/08/14 10:11:18;;;;;;;4.35;1.60;;;;;;;;;;5073023;28;20223;-73
2023/08/14 10:14:25;;;;;;;1.77;1.50;;;;;;;;;;5061207;28;20176;-73
2023/08/14 10:17:38;;;;;;;2.95;1.63;;;;;;;;;;5073150;28;20184;-73
2023/08/14 10:20:44;;;;;;;3.40;1.50;;;;;;;;;;5073014;28;20508;-72
2023/08/14 10:23:49;;;;;;;5.03;1.95;;;;;;;;;;5072665;28;20184;-73
2023/08/14 10:26:55;;;;;;;2.95;1.55;;;;;;;;;;5064469;28;20654;-73
2023/08/14 10:30:01;;;;;;;2.13;1.23;;;;;;;;;;5064397;28;20180;-73
2023/08/14 10:33:06;;;;;;;3.15;1.75;;;;;;;;;;5064279;28;20180;-73
2023/08/14 10:36:18;;;;;;;3.22;1.40;;;;;;;;;;5076277;28;20195;-73
2023/08/14 10:39:35;;;;;;;3.17;1.85;;;;;;;;;;5063844;28;20200;-73
2023/08/14 10:42:54;;;;;;;2.70;1.50;;;;;;;;;;5076126;28;20212;-73
2023/08/14 10:45:58;;;;;;;1.88;1.60;;;;;;;;;;5076123;28;20203;-73
2023/08/14 10:49:03;;;;;;;5.97;1.80;;;;;;;;;;5076265;28;20536;-73
2023/08/14 10:52:19;;;;;;;4.07;1.83;;;;;;;;;;5075917;28;20227;-73
2023/08/14 10:55:34;;;;;;;2.55;1.60;;;;;;;;;;5076375;28;20172;-73
2023/08/14 10:58:46;;;;;;;3.65;1.67;;;;;;;;;;5076343;28;20180;-73
2023/08/14 11:02:03;;;;;;;4.97;1.65;;;;;;;;;;5076199;28;20212;-73
2023/08/14 11:05:13;;;;;;;2.10;1.50;;;;;;;;;;5075763;28;20172;-73
2023/08/14 11:08:20;;;;;;;1.73;1.52;;;;;;;;;;5063282;28;20188;-73
2023/08/14 11:11:25;;;;;;;6.78;1.60;;;;;;;;;;5075866;28;20227;-73
2023/08/14 11:14:30;;;;;;;3.92;1.70;;;;;;;;;;5075538;28;20184;-73
2023/08/14 11:17:35;;;;;;;3.10;1.48;;;;;;;;;;5063234;28;20183;-73
2023/08/14 11:20:44;;;;;;;1.67;1.58;;;;;;;;;;5051526;28;20191;-73
2023/08/14 11:23:48;;;;;;;2.33;1.50;;;;;;;;;;5075664;28;20176;-73
2023/08/14 11:26:52;;;;;;;1.92;1.60;;;;;;;;;;5075433;28;20199;-73
2023/08/14 11:29:57;;;;;;;3.70;1.73;;;;;;;;;;5063483;28;20525;-73
2023/08/14 11:33:04;;;;;;;5.13;1.77;;;;;;;;;;5075425;28;20631;-72
2023/08/14 11:36:08;;;;;;;2.97;1.63;;;;;;;;;;5062080;28;20515;-72
2023/08/14 11:39:12;;;;;;;2.58;1.70;;;;;;;;;;5051726;28;20179;-72
2023/08/14 11:42:17;;;;;;;2.72;1.60;;;;;;;;;;5074940;28;20215;-72
2023/08/14 11:45:21;;;;;;;2.15;1.67;;;;;;;;;;5074846;28;20203;-73
2023/08/14 11:48:25;;;;;;;3.47;1.67;;;;;;;;;;5075230;28;20527;-72
2023/08/14 11:51:30;;;;;;;2.17;1.70;;;;;;;;;;5074931;28;20223;-73
2023/08/14 11:54:35;;;;;;;2.08;1.40;;;;;;;;;;5074824;28;20595;-72
2023/08/14 11:57:42;;;;;;;3.00;1.58;;;;;;;;;;5062663;28;20530;-72
2023/08/14 12:00:50;;;;;;;2.97;1.60;;;;;;;;;;5074941;28;20557;-73
2023/08/14 12:03:54;;;;;;;3.10;1.60;;;;;;;;;;5062799;28;20177;-72
2023/08/14 12:06:58;;;;;;;4.53;1.98;;;;;;;;;;5074547;28;20180;-73
2023/08/14 12:10:10;;;;;;;1.85;1.50;;;;;;;;;;5074785;28;20184;-72
2023/08/14 12:13:21;;;;;;;5.00;2.03;;;;;;;;;;5074411;28;20176;-72
2023/08/14 12:16:25;;;;;;;2.38;1.38;;;;;;;;;;5074613;28;20191;-73
2023/08/14 12:19:30;;;;;;;1.70;1.60;;;;;;;;;;5074387;28;20175;-72
2023/08/14 12:22:34;;;;;;;3.78;1.63;;;;;;;;;;5074197;28;20215;-73
2023/08/14 12:25:38;;;;;;;4.30;1.67;;;;;;;;;;5062162;28;20631;-73
2023/08/14 12:28:43;;;;;;;1.75;1.50;;;;;;;;;;5074387;28;20176;-72
2023/08/14 12:31:47;;;;;;;1.60;1.48;;;;;;;;;;5050135;28;20597;-72
2023/08/14 12:34:51;;;;;;;1.80;1.50;;;;;;;;;;5061664;28;20180;-72
2023/08/14 12:37:55;;;;;;;2.80;1.50;;;;;;;;;;5061686;28;20180;-72
2023/08/14 12:40:59;;;;;;;1.65;1.50;;;;;;;;;;5073775;28;20211;-73
2023/08/14 12:44:04;;;;;;;3.47;1.50;;;;;;;;;;5061772;28;20179;-73
2023/08/14 12:47:08;;;;;;;1.73;1.60;;;;;;;;;;5073496;28;20542;-73
2023/08/14 12:50:12;;;;;;;2.83;1.70;;;;;;;;;;5074034;28;20516;-73
2023/08/14 12:53:16;;;;;;;3.15;1.52;;;;;;;;;;5074011;28;20180;-73
2023/08/14 12:56:21;;;;;;;4.10;1.58;;;;;;;;;;5061629;28;20175;-73
2023/08/14 12:59:24;;;;;;;3.38;1.58;;;;;;;;;;5073554;28;20191;-73
2023/08/14 13:02:28;;;;;;;2.70;1.80;;;;;;;;;;5061146;28;20207;-73
2023/08/14 13:05:33;;;;;;;2.38;1.55;;;;;;;;;;5061428;28;20184;-73
2023/08/14 13:08:37;;;;;;;3.53;1.98;;;;;;;;;;5073428;28;20184;-72
2023/08/14 13:11:41;;;;;;;4.18;1.85;;;;;;;;;;5073210;28;20223;-72
2023/08/14 13:14:45;;;;;;;4.82;2.08;;;;;;;;;;5073677;28;20175;-73
2023/08/14 13:17:49;;;;;;;4.35;1.92;;;;;;;;;;5073628;28;20180;-72
2023/08/14 13:20:53;;;;;;;6.65;2.10;;;;;;;;;;5073507;28;20705;-72
2023/08/14 13:23:57;;;;;;;2.95;1.83;;;;;;;;;;5061483;28;20609;-73
2023/08/14 13:27:01;;;;;;;3.67;1.70;;;;;;;;;;5073176;28;20203;-72
2023/08/14 13:30:07;;;;;;;4.68;1.70;;;;;;;;;;5060934;28;20180;-72
2023/08/14 13:33:12;;;;;;;4.00;1.90;;;;;;;;;;5072944;28;20207;-72
2023/08/14 13:36:16;;;;;;;3.20;2.00;;;;;;;;;;5060802;28;20176;-73
2023/08/14 13:39:20;;;;;;;2.60;1.77;;;;;;;;;;5073064;28;20524;-72
2023/08/14 13:42:24;;;;;;;3.97;2.10;;;;;;;;;;5073102;28;20203;-73
2023/08/14 13:45:29;;;;;;;2.67;1.55;;;;;;;;;;5061049;28;20191;-73
2023/08/14 13:48:33;;;;;;;3.30;1.67;;;;;;;;;;5073160;28;20183;-73
2023/08/14 13:51:37;;;;;;;3.90;1.88;;;;;;;;;;5073093;28;20219;-73
2023/08/14 13:54:43;;;;;;;2.65;1.92;;;;;;;;;;5060880;28;20176;-72
2023/08/14 13:57:47;;;;;;;3.85;1.67;;;;;;;;;;5073033;28;20175;-72
2023/08/14 14:00:51;;;;;;;3.53;1.85;;;;;;;;;;5075920;28;20573;-72
2023/08/14 14:03:55;;;;;;;5.85;1.92;;;;;;;;;;5064608;28;20196;-72
2023/08/14 14:06:59;;;;;;;3.08;1.90;;;;;;;;;;5064762;28;20179;-72
2023/08/14 14:10:03;;;;;;;2.78;1.80;;;;;;;;;;5076841;28;20191;-72
2023/08/14 14:13:08;;;;;;;5.00;1.95;;;;;;;;;;5076637;28;20694;-73
2023/08/14 14:16:12;;;;;;;4.38;1.60;;;;;;;;;;5076667;28;20176;-73
2023/08/14 14:19:16;;;;;;;4.82;1.50;;;;;;;;;;5053070;28;20176;-72
2023/08/14 14:22:20;;;;;;;2.30;1.73;;;;;;;;;;5076519;28;20211;-72
2023/08/14 14:25:24;;;;;;;3.42;1.75;;;;;;;;;;5076508;28;20175;-73
2023/08/14 14:28:28;;;;;;;4.40;1.60;;;;;;;;;;5076389;28;20637;-72
2023/08/14 14:31:32;;;;;;;4.53;1.90;;;;;;;;;;5063960;28;20210;-73
2023/08/14 14:34:36;;;;;;;2.80;1.60;;;;;;;;;;5076260;28;20196;-73
2023/08/14 14:37:40;;;;;;;5.13;1.95;;;;;;;;;;5076470;28;20646;-73
2023/08/14 14:40:44;;;;;;;6.68;1.90;;;;;;;;;;5076110;28;20180;-72
2023/08/14 14:43:48;;;;;;;3.97;1.80;;;;;;;;;;5076221;28;20179;-73
2023/08/14 14:46:52;;;;;;;4.20;1.73;;;;;;;;;;5076032;28;20199;-73
2023/08/14 14:49:56;;;;;;;4.32;1.75;;;;;;;;;;5075977;28;20195;-72
2023/08/14 14:53:00;;;;;;;2.35;1.85;;;;;;;;;;5075839;28;20204;-73
2023/08/14 14:56:04;;;;;;;3.72;1.52;;;;;;;;;;5063633;28;20176;-73
2023/08/14 14:59:08;;;;;;;5.35;1.60;;;;;;;;;;5063596;28;20527;-73
2023/08/14 15:02:12;;;;;;;4.45;1.85;;;;;;;;;;5075717;28;20215;-73
2023/08/14 15:05:17;;;;;;;7.00;2.20;;;;;;;;;;5076102;28;20176;-73
2023/08/14 15:08:21;;;;;;;4.65;2.08;;;;;;;;;;5063486;28;20184;-73
2023/08/14 15:11:25;;;;;;;5.07;1.80;;;;;;;;;;5051621;28;20237;-73
2023/08/14 15:14:29;;;;;;;2.40;2.08;;;;;;;;;;5063259;28;20187;-73
2023/08/14 15:17:33;;;;;;;2.40;1.70;;;;;;;;;;5063520;28;20515;-73
2023/08/14 15:20:37;;;;;;;4.93;1.65;;;;;;;;;;5075995;28;20188;-72
2023/08/14 15:23:42;;;;;;;4.93;2.00;;;;;;;;;;5075386;28;20168;-73
2023/08/14 15:26:45;;;;;;;4.65;1.77;;;;;;;;;;5063301;28;20631;-73
2023/08/14 15:29:50;;;;;;;4.70;1.80;;;;;;;;;;5075610;28;20175;-73
2023/08/14 15:32:54;;;;;;;3.38;1.90;;;;;;;;;;5075140;28;20219;-72
2023/08/14 15:35:58;;;;;;;2.30;1.60;;;;;;;;;;5063252;28;20540;-73
2023/08/14 15:39:03;;;;;;;6.88;1.80;;;;;;;;;;5075469;28;20183;-73
2023/08/14 15:42:07;;;;;;;4.82;1.95;;;;;;;;;;5075075;28;20204;-72
2023/08/14 15:45:11;;;;;;;1.92;1.60;;;;;;;;;;5075285;28;20180;-73
2023/08/14 15:48:15;;;;;;;4.57;2.17;;;;;;;;;;5075468;28;20176;-73
2023/08/14 15:51:21;;;;;;;5.93;1.75;;;;;;;;;;5075007;28;20211;-72
2023/08/14 15:54:25;;;;;;;4.60;2.10;;;;;;;;;;5062746;28;20523;-73
2023/08/14 15:57:29;;;;;;;2.15;1.60;;;;;;;;;;5062596;28;20192;-72
2023/08/14 16:00:33;;;;;;;1.85;1.75;;;;;;;;;;5062324;28;20180;-73
2023/08/14 16:03:37;;;;;;;6.18;1.77;;;;;;;;;;5074762;28;20172;-73
2023/08/14 16:06:41;;;;;;;4.10;1.70;;;;;;;;;;5062636;28;20521;-72
2023/08/14 16:09:49;;;;;;;10.00;2.08;;;;;;;;;;5074778;28;20180;-73
2023/08/14 16:12:53;;;;;;;4.95;2.03;;;;;;;;;;5074514;28;20702;-73
2023/08/14 16:15:57;;;;;;;5.30;2.03;;;;;;;;;;5074389;28;20183;-73
2023/08/14 16:19:01;;;;;;;3.35;1.90;;;;;;;;;;5074306;28;20184;-72
2023/08/14 16:22:05;;;;;;;3.85;1.83;;;;;;;;;;5073860;28;20554;-72
2023/08/14 16:25:09;;;;;;;4.90;2.13;;;;;;;;;;5074409;28;20514;-73
2023/08/14 16:28:13;;;;;;;6.05;1.98;;;;;;;;;;5074168;28;20180;-72
2023/08/14 16:31:17;;;;;;;8.40;2.25;;;;;;;;;;5074174;28;20216;-72
2023/08/14 16:34:21;;;;;;;3.97;1.75;;;;;;;;;;5061861;28;20184;-73
2023/08/14 16:37:25;;;;;;;4.93;2.15;;;;;;;;;;5074237;28;20191;-73
2023/08/14 16:40:29;;;;;;;2.90;1.92;;;;;;;;;;5074252;28;20627;-73
2023/08/14 16:43:34;;;;;;;2.88;2.20;;;;;;;;;;5073815;28;20176;-72
2023/08/14 16:46:38;;;;;;;3.80;1.75;;;;;;;;;;5073728;28;20207;-73
2023/08/14 16:49:42;;;;;;;3.50;1.70;;;;;;;;;;5061479;28;20188;-73
2023/08/14 16:52:46;;;;;;;2.53;1.88;;;;;;;;;;5073586;28;20215;-72
2023/08/14 16:55:53;;;;;;;4.65;2.42;;;;;;;;;;5073604;28;20527;-73
2023/08/14 16:58:57;;;;;;;3.03;1.88;;;;;;;;;;5073604;28;20180;-72
2023/08/14 17:02:02;;;;;;;3.13;2.05;;;;;;;;;;5073442;28;20222;-73
2023/08/14 17:05:07;;;;;;;2.75;1.73;;;;;;;;;;5073774;28;20176;-73
2023/08/14 17:08:11;;;;;;;1.73;1.50;;;;;;;;;;5073422;28;20192;-73
2023/08/14 17:11:15;;;;;;;2.10;1.83;;;;;;;;;;5061319;28;20557;-73
2023/08/14 17:14:19;;;;;;;4.65;2.10;;;;;;;;;;5073210;28;20231;-73
2023/08/14 17:17:24;;;;;;;4.22;1.80;;;;;;;;;;5061316;28;20188;-73
2023/08/14 17:20:28;;;;;;;6.18;2.03;;;;;;;;;;5073274;28;20370;-72
2023/08/14 17:23:32;;;;;;;2.35;1.73;;;;;;;;;;5073189;28;20188;-72
2023/08/14 17:26:39;;;;;;;3.55;1.58;;;;;;;;;;5073279;28;20645;-73
2023/08/14 17:29:43;;;;;;;2.58;1.65;;;;;;;;;;5073129;28;20183;-72
2023/08/14 17:32:49;;;;;;;2.78;1.63;;;;;;;;;;5073002;28;20227;-72
2023/08/14 17:35:53;;;;;;;5.55;1.90;;;;;;;;;;5072856;28;20178;-73
2023/08/14 17:39:00;;;;;;;4.95;1.95;;;;;;;;;;5061104;28;20182;-73
2023/08/14 17:42:04;;;;;;;4.90;2.00;;;;;;;;;;5073110;28;20212;-72
2023/08/14 17:45:09;;;;;;;4.00;2.28;;;;;;;;;;5072972;28;20193;-73
2023/08/14 17:48:13;;;;;;;4.70;1.92;;;;;;;;;;5072944;28;20661;-73
2023/08/14 17:51:17;;;;;;;2.42;2.03;;;;;;;;;;5061098;28;20220;-72
2023/08/14 17:54:21;;;;;;;3.38;2.10;;;;;;;;;;5073113;28;20221;-72
2023/08/14 17:57:25;;;;;;;4.80;2.13;;;;;;;;;;5060539;28;20175;-72
2023/08/14 18:00:29;;;;;;;2.25;1.98;;;;;;;;;;5073188;28;20179;-72
2023/08/14 18:03:33;;;;;;;2.83;1.92;;;;;;;;;;5073071;28;20174;-72
2023/08/14 18:06:37;;;;;;;2.33;1.80;;;;;;;;;;5060454;28;20201;-72
2023/08/14 18:09:41;;;;;;;3.55;2.03;;;;;;;;;;5072738;28;20197;-73
2023/08/14 18:12:46;;;;;;;4.53;2.30;;;;;;;;;;5072722;28;20231;-72
2023/08/14 18:15:50;;;;;;;3.55;2.03;;;;;;;;;;5072770;28;20179;-73
2023/08/14 18:18:54;;;;;;;3.22;2.00;;;;;;;;;;5072741;28;20187;-73
2023/08/14 18:21:57;;;;;;;2.05;1.83;;;;;;;;;;5072683;28;20693;-72
2023/08/14 18:25:02;;;;;;;4.53;2.13;;;;;;;;;;5060722;28;20622;-72
2023/08/14 18:28:06;;;;;;;4.88;2.30;;;;;;;;;;5060166;28;20207;-72